Time;durP1;ratioP1;P1;durP2;ratioP2;P2;SDS_P1;SDS_P2;PMS_P1;PMS_P2;Temp;Humidity;BMP_temperature;BMP_pressure;BME280_temperature;BME280_humidity;BME280_pressure;Samples;Min_cycle;Max_cycle;Signal;HPM_P1;HPM_P2
2022/08/22 00:05:06;;;;;;;52.38;17.95;;;17.80;99.90;;;;;;10304519;28;20517;-79
2022/08/22 00:10:41;;;;;;;57.40;19.05;;;17.80;99.90;;;;;;10286417;28;20473;-79
2022/08/22 00:15:49;;;;;;;49.63;17.17;;;17.80;99.90;;;;;;10323365;28;20437;-80
2022/08/22 00:21:31;;;;;;;58.13;20.00;;;17.70;99.90;;;;;;10318949;28;20412;-79
2022/08/22 00:27:02;;;;;;;55.03;18.75;;;17.80;99.90;;;;;;10318190;28;20034;-79
2022/08/22 00:32:13;;;;;;;56.97;17.92;;;17.70;99.90;;;;;;10320490;28;20037;-79
2022/08/22 00:37:33;;;;;;;46.40;17.55;;;17.70;99.90;;;;;;10319029;28;20041;-81
2022/08/22 00:43:11;;;;;;;54.95;17.98;;;17.70;99.90;;;;;;10321248;28;20129;-79
2022/08/22 00:48:33;;;;;;;67.93;21.08;;;17.70;99.90;;;;;;10317403;28;20034;-82
2022/08/22 00:53:54;;;;;;;81.53;24.42;;;17.70;99.90;;;;;;10323040;28;20050;-80
2022/08/22 00:59:02;;;;;;;63.85;20.70;;;17.70;99.90;;;;;;10331007;28;20045;-80
2022/08/22 01:04:28;;;;;;;71.25;22.85;;;17.80;99.90;;;;;;10325890;28;20044;-80
2022/08/22 01:09:30;;;;;;;75.95;22.90;;;17.80;99.90;;;;;;10326895;28;20047;-79
2022/08/22 01:14:41;;;;;;;71.20;22.55;;;17.80;99.90;;;;;;10328557;28;20390;-79
2022/08/22 01:20:23;;;;;;;80.82;24.02;;;17.80;99.90;;;;;;10326824;28;20049;-80
2022/08/22 01:25:51;;;;;;;83.50;23.90;;;17.80;99.90;;;;;;10324997;28;20157;-80
2022/08/22 01:31:36;;;;;;;71.38;23.52;;;17.90;99.90;;;;;;10328911;28;20041;-80
2022/08/22 01:36:51;;;;;;;83.07;26.10;;;17.90;99.90;;;;;;10328122;28;20042;-80
2022/08/22 01:42:22;;;;;;;90.88;27.00;;;17.90;99.90;;;;;;10325149;28;20451;-80
2022/08/22 01:47:41;;;;;;;83.03;28.15;;;17.90;99.90;;;;;;10319808;28;20101;-80
2022/08/22 01:52:48;;;;;;;78.03;26.75;;;18.00;99.90;;;;;;10327122;28;20034;-80
2022/08/22 01:57:58;;;;;;;97.25;28.00;;;18.00;99.90;;;;;;10320700;28;20022;-80
2022/08/22 02:03:06;;;;;;;91.32;28.50;;;18.00;99.90;;;;;;10325952;28;20463;-81
2022/08/22 02:08:32;;;;;;;103.47;30.85;;;18.00;99.90;;;;;;10306589;28;20557;-81
2022/08/22 02:13:45;;;;;;;104.50;30.13;;;18.00;99.90;;;;;;10323860;28;20041;-79
2022/08/22 02:19:14;;;;;;;92.30;31.58;;;18.10;99.90;;;;;;10325167;28;20041;-80
2022/08/22 02:24:35;;;;;;;114.13;32.10;;;18.10;99.90;;;;;;10326399;28;20034;-80
2022/08/22 02:29:59;;;;;;;80.10;26.42;;;18.10;99.90;;;;;;10318302;28;20035;-80
2022/08/22 02:35:11;;;;;;;93.03;31.05;;;18.20;99.90;;;;;;10320368;28;20038;-79
2022/08/22 02:40:26;;;;;;;116.10;35.90;;;18.20;99.90;;;;;;10319221;28;20505;-80
2022/08/22 02:45:48;;;;;;;123.87;36.50;;;18.20;99.90;;;;;;10318848;28;20034;-80
2022/08/22 02:50:59;;;;;;;111.47;34.22;;;18.20;99.90;;;;;;10321380;28;20042;-79
2022/08/22 02:56:03;;;;;;;113.28;34.88;;;18.20;99.90;;;;;;10318112;28;20080;-80
2022/08/22 03:01:28;;;;;;;117.75;36.28;;;18.20;99.90;;;;;;10319848;28;20038;-81
2022/08/22 03:06:31;;;;;;;110.65;35.60;;;18.30;99.90;;;;;;10324564;28;20534;-81
2022/08/22 03:11:37;;;;;;;108.15;33.53;;;18.30;99.90;;;;;;10326530;28;20042;-81
2022/08/22 03:16:59;;;;;;;93.13;31.98;;;18.30;99.90;;;;;;10316076;28;20049;-81
2022/08/22 03:22:08;;;;;;;96.72;34.53;;;18.30;99.90;;;;;;10296210;28;20058;-80
2022/08/22 03:27:17;;;;;;;95.85;32.33;;;18.30;99.90;;;;;;10319222;28;20030;-79
2022/08/22 03:32:42;;;;;;;91.28;31.85;;;18.20;99.90;;;;;;10315715;28;20360;-80
2022/08/22 03:37:44;;;;;;;97.00;34.23;;;18.30;99.90;;;;;;10320840;28;20133;-80
2022/08/22 03:42:56;;;;;;;96.50;33.90;;;18.30;99.90;;;;;;10320364;28;20037;-80
2022/08/22 03:48:28;;;;;;;105.07;40.42;;;18.30;99.90;;;;;;10321467;28;20037;-81
2022/08/22 03:54:05;;;;;;;92.68;32.70;;;18.20;99.90;;;;;;10319806;28;20394;-81
2022/08/22 03:59:33;;;;;;;116.68;37.05;;;18.20;99.90;;;;;;10316167;28;20046;-79
2022/08/22 04:04:57;;;;;;;107.32;35.85;;;18.20;99.90;;;;;;10316534;28;20037;-81
2022/08/22 04:10:25;;;;;;;87.32;35.60;;;18.20;99.90;;;;;;10314872;28;20529;-80
2022/08/22 04:15:45;;;;;;;107.55;37.08;;;18.30;99.90;;;;;;10311093;28;20026;-80
2022/08/22 04:21:19;;;;;;;78.50;32.15;;;18.20;99.90;;;;;;10315368;28;20046;-80
2022/08/22 04:26:46;;;;;;;107.68;37.05;;;18.20;99.90;;;;;;10310302;28;20031;-80
2022/08/22 04:32:02;;;;;;;91.38;34.67;;;18.20;99.90;;;;;;10312552;28;20026;-84
2022/08/22 04:37:21;;;;;;;;;;;18.20;99.90;;;;;;10318628;28;20042;-84
2022/08/22 04:42:36;;;;;;;101.05;35.58;;;18.20;99.90;;;;;;10311751;28;20503;-84
2022/08/22 04:47:41;;;;;;;89.65;34.75;;;18.30;99.90;;;;;;10314950;28;20124;-84
2022/08/22 04:52:47;;;;;;;107.65;37.30;;;18.30;99.90;;;;;;10316017;28;20565;-83
2022/08/22 04:58:18;;;;;;;111.93;37.78;;;18.30;99.90;;;;;;10306494;28;20045;-82
2022/08/22 05:03:22;;;;;;;93.40;35.47;;;18.30;99.90;;;;;;10309878;28;20482;-83
2022/08/22 05:08:27;;;;;;;93.43;34.35;;;18.40;99.90;;;;;;10310399;28;20041;-84
2022/08/22 05:13:38;;;;;;;84.15;32.83;;;18.40;99.90;;;;;;10320048;28;20039;-84
2022/08/22 05:18:46;;;;;;;85.22;33.80;;;18.40;99.90;;;;;;10313861;28;20034;-85
2022/08/22 05:24:10;;;;;;;88.85;37.67;;;18.50;99.90;;;;;;10319456;28;20085;-83
2022/08/22 05:29:15;;;;;;;73.45;33.05;;;18.50;99.90;;;;;;10316796;28;20121;-84
2022/08/22 05:34:21;;;;;;;88.07;32.17;;;18.50;99.90;;;;;;10320230;28;20035;-84
2022/08/22 05:39:24;;;;;;;93.10;33.35;;;18.50;99.90;;;;;;10323195;28;20034;-83
2022/08/22 05:44:29;;;;;;;85.55;33.22;;;18.60;99.90;;;;;;10308244;28;20553;-84
2022/08/22 05:49:37;;;;;;;;;;;18.70;99.90;;;;;;10324922;28;20169;-84
2022/08/22 05:55:01;;;;;;;69.85;29.88;;;18.60;99.90;;;;;;10322638;28;19910;-83
2022/08/22 06:00:09;;;;;;;66.88;29.58;;;18.70;99.90;;;;;;10323575;28;20099;-83
2022/08/22 06:05:11;;;;;;;81.88;31.60;;;18.80;99.90;;;;;;10324943;28;20067;-83
2022/08/22 06:10:41;;;;;;;80.65;34.03;;;18.80;99.90;;;;;;10308961;28;20077;-83
2022/08/22 06:15:47;;;;;;;86.45;33.50;;;18.80;99.90;;;;;;10319761;28;20129;-83
2022/08/22 06:21:01;;;;;;;94.18;35.97;;;18.70;99.90;;;;;;10305779;28;20515;-83
2022/08/22 06:26:04;;;;;;;87.32;34.80;;;18.70;99.90;;;;;;10325810;28;20560;-82
2022/08/22 06:31:05;;;;;;;89.28;33.08;;;18.70;99.90;;;;;;10323650;28;20026;-83
2022/08/22 06:36:29;;;;;;;101.95;37.22;;;18.60;99.90;;;;;;10298003;28;20117;-83
2022/08/22 06:41:33;;;;;;;94.78;34.70;;;18.70;99.90;;;;;;10304991;28;20038;-83
2022/08/22 06:46:36;;;;;;;76.75;33.63;;;18.70;99.90;;;;;;10303421;28;20359;-83
2022/08/22 06:51:38;;;;;;;76.80;33.50;;;18.80;99.90;;;;;;10323364;28;20117;-84
2022/08/22 06:56:42;;;;;;;102.07;39.45;;;18.80;99.90;;;;;;10316616;28;20110;-85
2022/08/22 07:01:53;;;;;;;93.40;38.45;;;18.80;99.90;;;;;;10320703;28;20466;-83
2022/08/22 07:06:57;;;;;;;104.15;37.55;;;18.80;99.90;;;;;;10323783;28;20072;-83
2022/08/22 07:12:03;;;;;;;106.35;39.45;;;18.80;99.90;;;;;;10304041;28;20043;-83
2022/08/22 07:17:06;;;;;;;;;;;18.80;99.90;;;;;;10302360;28;20033;-82
2022/08/22 07:22:16;;;;;;;120.82;41.72;;;18.80;99.90;;;;;;10325340;28;19912;-83
2022/08/22 07:27:32;;;;;;;100.40;37.55;;;18.80;99.90;;;;;;10324800;28;20686;-83
2022/08/22 07:32:43;;;;;;;99.93;38.88;;;18.80;99.90;;;;;;10321302;28;20026;-83
2022/08/22 07:38:22;;;;;;;100.20;40.83;;;18.80;99.90;;;;;;10318941;28;20026;-84
2022/08/22 07:43:59;;;;;;;87.97;36.88;;;18.80;99.90;;;;;;10323368;28;20575;-84
2022/08/22 07:49:15;;;;;;;109.75;39.17;;;18.80;99.90;;;;;;10297674;28;20045;-83
2022/08/22 07:54:24;;;;;;;92.30;37.03;;;18.90;99.90;;;;;;10320931;28;20034;-83
2022/08/22 07:59:27;;;;;;;90.72;35.20;;;18.90;99.90;;;;;;10316925;28;20042;-83
2022/08/22 08:04:34;;;;;;;104.57;36.45;;;19.00;99.90;;;;;;10316958;28;20027;-82
2022/08/22 08:09:39;;;;;;;97.63;37.10;;;19.00;99.90;;;;;;10322660;28;20085;-83
2022/08/22 08:14:43;;;;;;;98.00;37.58;;;19.10;99.90;;;;;;10313418;28;20402;-82
2022/08/22 08:19:44;;;;;;;99.18;38.38;;;19.10;99.90;;;;;;10323389;28;20347;-82
2022/08/22 08:24:46;;;;;;;95.70;39.03;;;19.20;99.90;;;;;;10312558;28;20041;-82
2022/08/22 08:29:57;;;;;;;85.70;37.65;;;19.30;99.90;;;;;;10309924;28;20037;-84
2022/08/22 08:35:15;;;;;;;83.82;36.55;;;19.40;99.90;;;;;;10309838;28;20019;-83
2022/08/22 08:40:31;;;;;;;92.43;35.38;;;19.50;99.90;;;;;;10304537;28;20173;-83
2022/08/22 08:46:08;;;;;;;78.65;30.40;;;19.50;99.90;;;;;;10292433;28;20031;-83
2022/08/22 08:51:49;;;;;;;68.07;26.15;;;19.40;99.90;;;;;;10309697;28;20089;-83
2022/08/22 08:57:26;;;;;;;63.83;25.83;;;19.20;99.90;;;;;;10317676;28;20037;-82
2022/08/22 09:02:44;;;;;;;71.85;25.23;;;19.10;99.90;;;;;;10241861;28;20043;-83
2022/08/22 09:08:18;;;;;;;58.00;24.77;;;19.00;99.90;;;;;;10320393;28;20026;-82
2022/08/22 09:13:40;;;;;;;57.58;22.45;;;19.00;99.90;;;;;;10318472;28;20129;-82
2022/08/22 09:19:09;;;;;;;55.92;21.45;;;19.10;99.90;;;;;;10327809;28;20042;-84
2022/08/22 09:46:41;;;;;;;31.50;15.90;;;19.40;99.90;;;;;;10722735;23;20093;-82
2022/08/22 09:52:14;;;;;;;27.58;16.08;;;19.60;99.90;;;;;;10290195;28;20046;-84
2022/08/22 09:57:25;;;;;;;29.80;16.90;;;19.70;99.90;;;;;;10266126;28;20039;-82
2022/08/22 10:03:04;;;;;;;32.17;15.93;;;20.00;99.90;;;;;;10290233;28;20550;-83
2022/08/22 10:08:23;;;;;;;25.08;13.48;;;20.10;99.90;;;;;;10273722;28;20039;-83
2022/08/22 10:13:49;;;;;;;25.60;13.85;;;20.40;99.90;;;;;;10275304;28;20046;-84
2022/08/22 10:19:01;;;;;;;25.13;14.07;;;20.50;99.90;;;;;;10260394;28;20046;-83
2022/08/22 10:24:16;;;;;;;27.90;13.98;;;20.50;99.90;;;;;;10264290;28;20819;-83
2022/08/22 10:29:41;;;;;;;27.95;15.10;;;20.50;99.90;;;;;;10261230;28;20027;-83
2022/08/22 10:34:48;;;;;;;28.77;15.13;;;20.70;99.90;;;;;;10260636;28;20031;-82
2022/08/22 10:40:25;;;;;;;26.55;15.63;;;20.90;99.90;;;;;;10260086;28;20034;-83
2022/08/22 10:45:36;;;;;;;24.25;15.45;;;21.00;99.90;;;;;;10266070;28;20121;-83
2022/08/22 10:50:57;;;;;;;23.83;13.98;;;21.10;99.90;;;;;;10266913;28;20090;-83
2022/08/22 10:56:08;;;;;;;28.95;17.27;;;21.50;99.90;;;;;;10269497;28;20027;-83
2022/08/22 11:01:13;;;;;;;32.10;18.88;;;21.70;99.90;;;;;;10254317;28;20503;-83
2022/08/22 11:06:29;;;;;;;32.92;21.17;;;21.80;99.90;;;;;;10257863;28;20110;-84
2022/08/22 11:12:01;;;;;;;35.58;20.50;;;21.60;99.90;;;;;;10251423;28;20134;-83
2022/08/22 11:17:13;;;;;;;36.53;22.75;;;21.40;99.90;;;;;;10267998;28;20038;-82
2022/08/22 11:23:02;;;;;;;38.83;21.88;;;21.20;99.90;;;;;;10264249;28;20430;-82
2022/08/22 11:28:32;;;;;;;38.67;23.48;;;21.20;99.90;;;;;;10262355;28;20044;-83
2022/08/22 11:33:39;;;;;;;39.47;22.88;;;21.20;99.90;;;;;;10265495;28;20029;-84
2022/08/22 11:44:56;;;;;;;36.65;23.08;;;21.30;99.90;;;;;;10251375;28;20050;-82
2022/08/22 11:50:47;;;;;;;;;;;;;;;;;;;;;
2022/08/22 11:56:14;;;;;;;40.55;25.85;;;21.50;99.90;;;;;;10265903;28;20027;-83
2022/08/22 12:02:02;;;;;;;44.10;25.40;;;21.60;99.90;;;;;;10271300;28;20092;-82
2022/08/22 12:07:35;;;;;;;42.20;24.65;;;21.60;99.90;;;;;;10206628;28;20047;-83
2022/08/22 12:12:44;;;;;;;39.92;25.48;;;21.70;99.90;;;;;;10256394;28;20510;-82
2022/08/22 12:18:08;;;;;;;45.17;26.15;;;21.80;99.90;;;;;;10264508;28;20046;-82
2022/08/22 12:23:30;;;;;;;43.13;26.65;;;21.90;99.90;;;;;;10258007;28;20077;-83
2022/08/22 12:28:56;;;;;;;40.55;25.17;;;21.70;99.90;;;;;;10267845;28;20042;-85
2022/08/22 12:34:18;;;;;;;42.03;23.13;;;21.50;99.90;;;;;;10264795;28;20050;-84
2022/08/22 12:39:33;;;;;;;44.30;24.05;;;21.50;99.90;;;;;;10257676;28;20039;-82
2022/08/22 12:44:59;;;;;;;33.88;20.83;;;21.70;99.90;;;;;;10268907;28;20027;-85
2022/08/22 12:50:21;;;;;;;32.22;19.38;;;22.10;99.90;;;;;;10244217;28;20551;-87
2022/08/22 12:55:40;;;;;;;28.27;19.80;;;22.50;99.90;;;;;;10261175;28;20113;-84
2022/08/22 13:00:44;;;;;;;27.80;17.98;;;23.10;99.90;;;;;;10258040;28;20047;-85
2022/08/22 13:05:47;;;;;;;26.13;16.58;;;23.20;99.90;;;;;;10243124;28;20122;-84
2022/08/22 13:10:57;;;;;;;25.58;16.83;;;23.20;99.90;;;;;;10252871;28;20039;-84
2022/08/22 13:16:03;;;;;;;23.52;17.40;;;23.30;99.90;;;;;;10256193;28;20034;-86
2022/08/22 13:21:08;;;;;;;25.83;18.15;;;23.30;99.90;;;;;;10246474;28;20047;-86
2022/08/22 13:26:20;;;;;;;24.52;18.85;;;23.50;99.90;;;;;;10249215;28;20314;-84
2022/08/22 13:55:02;;;;;;;24.60;18.98;;;23.70;99.90;;;;;;10308440;28;20490;-83
2022/08/22 14:00:18;;;;;;;25.77;19.60;;;23.90;99.90;;;;;;10296643;28;20497;-84
2022/08/22 14:06:13;;;;;;;24.88;18.98;;;23.70;99.90;;;;;;10301276;28;20394;-84
2022/08/22 14:16:57;;;;;;;25.60;17.92;;;23.00;99.90;;;;;;10324544;28;20478;-83
2022/08/22 14:22:16;;;;;;;23.60;18.02;;;22.50;99.90;;;;;;10299581;28;20508;-84
2022/08/22 14:51:08;;;;;;;19.75;16.13;;;22.90;99.90;;;;;;10326308;28;20042;-83
2022/08/22 14:57:04;;;;;;;24.83;16.67;;;23.00;99.90;;;;;;10325387;28;20034;-83
2022/08/22 15:02:15;;;;;;;20.42;16.10;;;22.80;99.90;;;;;;10291624;28;20100;-83
2022/08/22 15:20:36;;;;;;;20.27;14.43;;;22.90;99.90;;;;;;10274653;28;20418;-84
2022/08/22 15:25:33;;;;;;;18.63;15.52;;;22.80;99.90;;;;;;10268008;28;20039;-82
2022/08/22 15:31:17;;;;;;;20.20;16.77;;;22.60;99.90;;;;;;10264596;28;20045;-83
2022/08/22 15:36:30;;;;;;;19.45;14.90;;;22.40;99.90;;;;;;10118515;29;20529;-81
2022/08/22 15:41:34;;;;;;;12.98;10.27;;;22.30;99.90;;;;;;10102387;29;20052;-83
2022/08/22 15:46:54;;;;;;;10.60;8.27;;;22.20;99.90;;;;;;10226321;28;20472;-81
2022/08/22 15:51:58;;;;;;;12.18;8.15;;;22.00;99.90;;;;;;10263091;28;20218;-82
2022/08/22 15:57:13;;;;;;;10.05;7.82;;;21.90;99.90;;;;;;10277617;28;20035;-83
2022/08/22 16:02:34;;;;;;;11.98;8.23;;;21.80;99.90;;;;;;10261612;28;20505;-82
2022/08/22 16:07:49;;;;;;;9.18;7.22;;;21.80;99.90;;;;;;10284788;28;20027;-82
2022/08/22 16:13:12;;;;;;;11.25;8.50;;;21.60;99.90;;;;;;10282296;28;20029;-82
2022/08/22 16:18:43;;;;;;;11.30;7.55;;;21.50;99.90;;;;;;10281552;28;20137;-81
2022/08/22 16:23:50;;;;;;;10.13;7.70;;;21.40;99.90;;;;;;10277977;28;20035;-82
2022/08/22 16:29:02;;;;;;;12.85;8.20;;;21.20;99.90;;;;;;10280032;28;20041;-83
2022/08/22 16:34:15;;;;;;;11.07;7.22;;;21.10;99.90;;;;;;10273358;28;20031;-82
2022/08/22 16:39:21;;;;;;;11.52;8.93;;;21.00;99.90;;;;;;10289388;28;20062;-81
2022/08/22 16:44:28;;;;;;;21.35;12.27;;;20.80;99.90;;;;;;10284794;28;20051;-83
2022/08/22 16:49:32;;;;;;;22.10;13.25;;;20.40;99.90;;;;;;10277449;28;20022;-81
2022/08/22 16:54:45;;;;;;;33.17;17.57;;;20.10;99.90;;;;;;10282215;28;20038;-84
2022/08/22 16:59:53;;;;;;;30.13;15.93;;;19.90;99.90;;;;;;10270103;28;20418;-80
2022/08/22 17:05:09;;;;;;;29.95;15.68;;;19.70;99.90;;;;;;10283102;28;20085;-78
2022/08/22 17:10:21;;;;;;;28.10;16.23;;;19.50;99.90;;;;;;10284079;28;20095;-79
2022/08/22 17:15:38;;;;;;;30.25;17.48;;;19.40;99.90;;;;;;10280528;28;20031;-79
2022/08/22 17:20:53;;;;;;;31.65;18.20;;;19.40;99.90;;;;;;10283107;28;20045;-79
2022/08/22 17:26:09;;;;;;;60.83;24.75;;;19.40;99.90;;;;;;10281439;28;20500;-79
2022/08/22 17:31:12;;;;;;;24.70;14.98;;;19.40;99.90;;;;;;10282456;28;20026;-79
2022/08/22 17:36:22;;;;;;;35.13;18.90;;;19.30;99.90;;;;;;10285374;28;20058;-79
2022/08/22 17:41:41;;;;;;;37.47;20.10;;;19.30;99.90;;;;;;10287333;28;20505;-79
2022/08/22 17:47:05;;;;;;;39.38;21.63;;;19.30;99.90;;;;;;10282946;28;20143;-80
2022/08/22 17:52:28;;;;;;;42.65;21.95;;;19.20;99.90;;;;;;10286952;28;20066;-79
2022/08/22 17:57:38;;;;;;;43.53;22.13;;;19.10;99.90;;;;;;10282236;28;20368;-81
2022/08/22 18:02:53;;;;;;;35.55;19.83;;;19.20;99.90;;;;;;10287194;28;20491;-82
2022/08/22 18:08:05;;;;;;;38.03;20.77;;;19.20;99.90;;;;;;10289378;28;20130;-81
2022/08/22 18:13:44;;;;;;;36.13;21.80;;;19.20;99.90;;;;;;10283134;28;20051;-80
2022/08/22 18:19:04;;;;;;;49.28;25.38;;;19.20;99.90;;;;;;10279399;28;20188;-78
2022/08/22 18:24:08;;;;;;;40.25;22.67;;;19.20;99.90;;;;;;10291758;28;20042;-79
2022/08/22 18:29:19;;;;;;;58.17;26.85;;;19.20;99.90;;;;;;10279424;28;20151;-81
2022/08/22 18:34:23;;;;;;;44.50;24.83;;;19.30;99.90;;;;;;10284588;28;20033;-79
2022/08/22 18:39:41;;;;;;;50.13;25.90;;;19.20;99.90;;;;;;10291206;28;20122;-79
2022/08/22 18:44:43;;;;;;;44.17;25.23;;;19.20;99.90;;;;;;10287972;28;20055;-79
2022/08/22 18:49:47;;;;;;;53.90;27.83;;;19.20;99.90;;;;;;10281915;28;20038;-79
2022/08/22 18:55:12;;;;;;;53.60;27.75;;;19.20;99.90;;;;;;10286497;28;20085;-79
2022/08/22 19:00:15;;;;;;;54.75;28.50;;;19.20;99.90;;;;;;10292208;28;20039;-81
2022/08/22 19:05:28;;;;;;;66.70;32.47;;;19.20;99.90;;;;;;10283295;28;20039;-79
2022/08/22 19:11:10;;;;;;;55.53;32.17;;;19.30;99.90;;;;;;10274294;28;20046;-80
2022/08/22 19:16:30;;;;;;;91.70;37.92;;;19.30;99.90;;;;;;10281041;28;20113;-80
2022/08/22 19:27:39;;;;;;;69.43;34.67;;;19.30;99.90;;;;;;10279678;28;20039;-80
2022/08/22 19:32:45;;;;;;;60.03;31.25;;;19.40;99.90;;;;;;10081752;29;20034;-79
2022/08/22 19:37:55;;;;;;;64.47;34.88;;;19.40;99.90;;;;;;10241267;28;20527;-81
2022/08/22 19:43:25;;;;;;;62.17;32.38;;;19.40;99.90;;;;;;10281602;28;20042;-80
2022/08/22 19:48:42;;;;;;;65.47;32.60;;;19.40;99.90;;;;;;10277831;28;20055;-79
2022/08/22 19:54:05;;;;;;;59.10;30.42;;;19.40;99.90;;;;;;10266384;28;20031;-80
2022/08/22 19:59:30;;;;;;;41.40;25.20;;;19.40;99.90;;;;;;10279466;28;20046;-80
2022/08/22 20:04:39;;;;;;;34.00;22.00;;;19.40;99.90;;;;;;10276412;28;20101;-81
2022/08/22 20:09:45;;;;;;;40.30;22.90;;;19.40;99.90;;;;;;10280418;28;20101;-80
2022/08/22 20:14:47;;;;;;;40.03;23.75;;;19.30;99.90;;;;;;10280527;28;20383;-80
2022/08/22 20:19:51;;;;;;;46.08;24.15;;;19.30;99.90;;;;;;10275615;28;20591;-80
2022/08/22 20:25:30;;;;;;;30.48;20.05;;;19.30;99.90;;;;;;10278615;28;20038;-80
2022/08/22 20:30:39;;;;;;;37.53;21.58;;;19.20;99.90;;;;;;10275256;28;20023;-82
2022/08/22 20:35:42;;;;;;;37.92;22.88;;;19.20;99.90;;;;;;10260286;28;20386;-81
2022/08/22 20:40:42;;;;;;;47.08;25.88;;;19.20;99.90;;;;;;10281557;28;20093;-81
2022/08/22 20:45:59;;;;;;;56.55;28.85;;;19.20;99.90;;;;;;10280922;28;20062;-81
2022/08/22 20:51:05;;;;;;;45.92;27.55;;;19.20;99.90;;;;;;10282460;28;20034;-80
2022/08/22 20:56:08;;;;;;;50.08;29.52;;;19.20;99.90;;;;;;10281940;28;20134;-83
2022/08/22 21:01:10;;;;;;;54.25;28.60;;;19.10;99.90;;;;;;10279536;28;20122;-82
2022/08/22 21:06:19;;;;;;;49.67;28.00;;;19.10;99.90;;;;;;10273355;28;20487;-80
2022/08/22 21:11:39;;;;;;;64.75;31.52;;;19.20;99.90;;;;;;10285128;28;20105;-83
2022/08/22 21:16:40;;;;;;;58.83;32.97;;;19.20;99.90;;;;;;10282669;28;20045;-80
2022/08/22 21:21:41;;;;;;;71.00;34.55;;;19.20;99.90;;;;;;10290272;28;20042;-80
2022/08/22 21:26:44;;;;;;;73.72;37.58;;;19.20;99.90;;;;;;10278995;28;20035;-80
2022/08/22 21:31:53;;;;;;;79.90;36.10;;;19.30;99.90;;;;;;10279865;28;20072;-80
2022/08/22 21:36:59;;;;;;;80.38;35.55;;;19.30;99.90;;;;;;10279256;28;20169;-80
2022/08/22 21:42:00;;;;;;;75.93;34.13;;;19.30;99.90;;;;;;10287358;28;20050;-82
2022/08/22 21:47:28;;;;;;;67.13;30.73;;;19.40;99.90;;;;;;10284062;28;20739;-82
2022/08/22 21:52:31;;;;;;;50.83;25.15;;;19.30;99.90;;;;;;10288624;28;20023;-80
2022/08/22 21:57:33;;;;;;;55.30;24.27;;;19.20;99.90;;;;;;10286649;28;20037;-81
2022/08/22 22:02:41;;;;;;;26.73;11.48;;;19.10;99.90;;;;;;10274154;28;20121;-85
2022/08/22 22:07:44;;;;;;;20.73;8.13;;;18.90;99.90;;;;;;10281731;28;20476;-87
2022/08/22 22:12:47;;;;;;;27.25;12.00;;;18.50;99.90;;;;;;10287481;28;20027;-87
2022/08/22 22:17:47;;;;;;;12.15;6.80;;;18.20;99.90;;;;;;10283266;28;20058;-85
2022/08/22 22:22:49;;;;;;;23.85;10.10;;;18.00;99.90;;;;;;10287909;28;20034;-85
2022/08/22 22:27:49;;;;;;;36.53;13.02;;;17.90;99.90;;;;;;10287434;28;20581;-86
2022/08/22 22:32:50;;;;;;;33.50;13.02;;;17.90;99.90;;;;;;10285427;28;20034;-86
2022/08/22 22:37:51;;;;;;;24.98;11.00;;;17.90;99.90;;;;;;10282143;28;20081;-83
2022/08/22 22:42:51;;;;;;;26.98;12.13;;;17.80;99.90;;;;;;10285851;28;20086;-79
2022/08/22 22:47:52;;;;;;;69.60;18.98;;;17.70;99.90;;;;;;10279436;28;20073;-81
2022/08/22 22:52:52;;;;;;;26.35;11.48;;;17.70;99.90;;;;;;10283864;28;20034;-80
2022/08/22 22:57:53;;;;;;;35.40;12.38;;;17.60;99.90;;;;;;10284384;28;20039;-80
2022/08/22 23:02:54;;;;;;;27.40;12.95;;;17.60;99.90;;;;;;10283537;28;20105;-80
2022/08/22 23:07:55;;;;;;;17.90;9.00;;;17.50;99.90;;;;;;10285952;28;20035;-80
2022/08/22 23:12:56;;;;;;;21.75;9.32;;;17.50;99.90;;;;;;10280572;28;20035;-79
2022/08/22 23:17:56;;;;;;;19.15;8.45;;;17.40;99.90;;;;;;10279364;28;20039;-79
2022/08/22 23:22:58;;;;;;;16.63;7.60;;;17.40;99.90;;;;;;10269940;28;20114;-80
2022/08/22 23:27:58;;;;;;;15.38;7.25;;;17.40;99.90;;;;;;10281906;28;20117;-80
2022/08/22 23:32:59;;;;;;;13.60;6.70;;;17.40;99.90;;;;;;10282109;28;20035;-80
2022/08/22 23:38:00;;;;;;;20.95;9.02;;;17.30;99.90;;;;;;10279389;28;20035;-79
2022/08/22 23:43:00;;;;;;;23.33;9.25;;;17.30;99.90;;;;;;10284141;28;20030;-79
2022/08/22 23:48:01;;;;;;;33.30;11.13;;;17.30;99.90;;;;;;10283921;28;20050;-79
2022/08/22 23:53:02;;;;;;;15.10;7.60;;;17.40;99.90;;;;;;10265598;28;20031;-79
2022/08/22 23:58:02;;;;;;;14.02;6.95;;;17.30;99.90;;;;;;10283111;28;20027;-80
